Time;durP1;ratioP1;P1;durP2;ratioP2;P2;SDS_P1;SDS_P2;PMS_P1;PMS_P2;Temp;Humidity;BMP_temperature;BMP_pressure;BME280_temperature;BME280_humidity;BME280_pressure;Samples;Min_cycle;Max_cycle;Signal;HPM_P1;HPM_P2
2023/09/04 00:02:34;;;;;;;10.18;5.93;;;;;;;;;;6228404;28;20037;-77
2023/09/04 00:05:35;;;;;;;6.28;4.95;;;;;;;;;;6231281;28;20056;-75
2023/09/04 00:08:37;;;;;;;9.70;5.65;;;;;;;;;;6224569;28;20443;-75
2023/09/04 00:11:39;;;;;;;8.35;5.38;;;;;;;;;;6224497;28;20077;-77
2023/09/04 00:14:40;;;;;;;10.13;5.20;;;;;;;;;;6222647;28;20044;-77
2023/09/04 00:17:42;;;;;;;8.93;5.03;;;;;;;;;;6233518;28;20041;-77
2023/09/04 00:20:44;;;;;;;9.13;5.75;;;;;;;;;;6229192;28;20484;-76
2023/09/04 00:23:45;;;;;;;7.13;5.65;;;;;;;;;;6229204;28;20512;-77
2023/09/04 00:26:47;;;;;;;6.82;5.63;;;;;;;;;;6225760;28;20059;-76
2023/09/04 00:29:49;;;;;;;6.93;5.28;;;;;;;;;;6228431;28;20430;-77
2023/09/04 00:32:50;;;;;;;7.55;4.55;;;;;;;;;;6223466;28;20105;-76
2023/09/04 00:35:52;;;;;;;6.05;4.55;;;;;;;;;;6228896;28;20416;-78
2023/09/04 00:38:54;;;;;;;6.40;4.60;;;;;;;;;;6232533;28;20136;-77
2023/09/04 00:41:55;;;;;;;8.45;4.90;;;;;;;;;;6229081;28;20068;-77
2023/09/04 00:44:57;;;;;;;6.97;4.22;;;;;;;;;;6230787;28;20045;-78
2023/09/04 00:47:59;;;;;;;5.65;4.88;;;;;;;;;;6232730;28;20038;-76
2023/09/04 00:51:01;;;;;;;8.13;5.00;;;;;;;;;;6234281;28;20041;-77
2023/09/04 00:54:03;;;;;;;6.10;4.50;;;;;;;;;;6229522;28;20049;-78
2023/09/04 00:57:05;;;;;;;5.50;4.53;;;;;;;;;;6235190;28;20060;-79
2023/09/04 01:00:09;;;;;;;7.13;4.72;;;;;;;;;;6227874;28;20049;-78
2023/09/04 01:03:12;;;;;;;6.05;4.15;;;;;;;;;;6228947;28;20064;-79
2023/09/04 01:06:14;;;;;;;5.95;4.40;;;;;;;;;;6222175;28;20045;-78
2023/09/04 01:09:17;;;;;;;6.50;5.05;;;;;;;;;;6237775;28;20046;-78
2023/09/04 01:12:24;;;;;;;8.88;5.30;;;;;;;;;;6205918;28;20072;-78
2023/09/04 01:15:27;;;;;;;7.18;4.78;;;;;;;;;;6247591;28;20041;-76
2023/09/04 01:18:29;;;;;;;6.30;4.72;;;;;;;;;;6248795;28;20672;-78
2023/09/04 01:21:37;;;;;;;7.43;5.43;;;;;;;;;;6250651;28;20057;-76
2023/09/04 01:24:39;;;;;;;10.98;6.13;;;;;;;;;;6246919;28;20054;-79
2023/09/04 01:27:53;;;;;;;10.73;5.95;;;;;;;;;;6232115;28;20052;-77
2023/09/04 01:31:08;;;;;;;10.18;5.95;;;;;;;;;;6237935;28;20054;-79
2023/09/04 01:34:14;;;;;;;9.65;6.50;;;;;;;;;;6228580;28;20049;-77
2023/09/04 01:37:17;;;;;;;8.98;6.15;;;;;;;;;;6228395;28;20567;-75
2023/09/04 01:40:18;;;;;;;11.38;5.95;;;;;;;;;;6225546;28;20529;-77
2023/09/04 01:43:20;;;;;;;16.08;5.93;;;;;;;;;;6210434;28;20046;-77
2023/09/04 01:46:22;;;;;;;11.13;6.60;;;;;;;;;;6234081;28;20052;-77
2023/09/04 01:49:24;;;;;;;13.02;7.07;;;;;;;;;;6239702;28;20045;-78
2023/09/04 01:52:26;;;;;;;23.98;7.28;;;;;;;;;;6234701;28;20050;-79
2023/09/04 01:55:27;;;;;;;16.65;7.55;;;;;;;;;;6230726;28;20060;-79
2023/09/04 01:58:29;;;;;;;11.43;6.25;;;;;;;;;;6231132;28;20060;-78
2023/09/04 02:01:31;;;;;;;11.77;6.60;;;;;;;;;;6216258;28;20045;-78
2023/09/04 02:04:34;;;;;;;9.05;5.78;;;;;;;;;;6232191;28;20096;-78
2023/09/04 02:07:36;;;;;;;10.60;5.88;;;;;;;;;;6231305;28;20053;-79
2023/09/04 02:10:37;;;;;;;16.55;6.45;;;;;;;;;;6231681;28;20046;-79
2023/09/04 02:13:39;;;;;;;12.20;5.88;;;;;;;;;;6233556;28;20045;-77
2023/09/04 02:16:41;;;;;;;9.52;5.35;;;;;;;;;;6225134;28;20065;-76
2023/09/04 02:19:43;;;;;;;9.60;5.85;;;;;;;;;;6233430;28;20037;-78
2023/09/04 02:22:44;;;;;;;13.40;6.75;;;;;;;;;;6239962;28;20042;-79
2023/09/04 02:25:47;;;;;;;10.30;6.10;;;;;;;;;;6232016;28;20052;-76
2023/09/04 02:28:49;;;;;;;12.43;6.20;;;;;;;;;;6218842;28;20050;-78
2023/09/04 02:31:50;;;;;;;9.65;5.43;;;;;;;;;;6239827;28;20041;-77
2023/09/04 02:34:53;;;;;;;10.18;5.53;;;;;;;;;;6236803;28;20042;-76
2023/09/04 02:37:55;;;;;;;11.77;5.83;;;;;;;;;;6245335;28;20531;-77
2023/09/04 02:40:57;;;;;;;14.43;6.03;;;;;;;;;;6242824;28;20436;-78
2023/09/04 02:43:59;;;;;;;9.52;5.93;;;;;;;;;;6245267;28;20061;-78
2023/09/04 02:47:00;;;;;;;11.27;5.72;;;;;;;;;;6230184;28;20045;-75
2023/09/04 02:50:06;;;;;;;11.93;5.82;;;;;;;;;;6248161;28;20049;-77
2023/09/04 02:53:08;;;;;;;11.82;5.80;;;;;;;;;;6225000;28;20053;-76
2023/09/04 02:56:10;;;;;;;15.85;5.47;;;;;;;;;;6237372;28;20048;-78
2023/09/04 02:59:12;;;;;;;12.57;5.28;;;;;;;;;;6233954;28;20050;-77
2023/09/04 03:02:14;;;;;;;9.65;5.57;;;;;;;;;;6234622;28;20049;-77
2023/09/04 03:05:16;;;;;;;8.43;5.90;;;;;;;;;;6236429;28;20848;-77
2023/09/04 03:08:18;;;;;;;8.73;5.23;;;;;;;;;;6241329;28;20045;-78
2023/09/04 03:11:20;;;;;;;9.73;5.10;;;;;;;;;;6242028;28;20041;-80
2023/09/04 03:14:22;;;;;;;10.27;5.60;;;;;;;;;;6245674;28;20085;-77
2023/09/04 03:17:25;;;;;;;18.15;4.65;;;;;;;;;;6231829;28;20397;-77
2023/09/04 03:20:28;;;;;;;6.80;4.32;;;;;;;;;;6216613;28;20049;-79
2023/09/04 03:23:33;;;;;;;6.03;4.60;;;;;;;;;;6244062;28;20041;-79
2023/09/04 03:26:36;;;;;;;47.22;6.88;;;;;;;;;;6247486;28;20118;-78
2023/09/04 03:29:40;;;;;;;10.90;4.75;;;;;;;;;;6245477;28;20045;-79
2023/09/04 03:32:42;;;;;;;39.53;5.93;;;;;;;;;;6234801;28;20503;-79
2023/09/04 03:35:43;;;;;;;20.95;8.05;;;;;;;;;;6234217;28;20045;-78
2023/09/04 03:38:45;;;;;;;13.05;6.75;;;;;;;;;;6222455;28;20037;-76
2023/09/04 03:41:47;;;;;;;9.77;5.63;;;;;;;;;;6202682;28;20050;-76
2023/09/04 03:44:49;;;;;;;14.18;5.28;;;;;;;;;;6242310;28;20890;-76
2023/09/04 03:47:51;;;;;;;51.30;6.70;;;;;;;;;;6241966;28;20048;-77
2023/09/04 03:50:53;;;;;;;17.30;5.97;;;;;;;;;;6241647;28;20048;-76
2023/09/04 03:53:55;;;;;;;8.43;4.95;;;;;;;;;;6241066;28;20719;-78
2023/09/04 03:56:57;;;;;;;7.35;4.65;;;;;;;;;;6238965;28;20046;-78
2023/09/04 03:59:58;;;;;;;13.10;4.70;;;;;;;;;;6224680;28;20128;-78
2023/09/04 04:03:00;;;;;;;16.27;4.68;;;;;;;;;;6242134;28;20056;-77
2023/09/04 04:06:13;;;;;;;10.93;4.22;;;;;;;;;;6221754;28;20099;-79
2023/09/04 04:09:15;;;;;;;6.93;4.38;;;;;;;;;;6227763;28;20508;-80
2023/09/04 04:12:17;;;;;;;8.90;4.43;;;;;;;;;;6243510;28;20053;-79
2023/09/04 04:15:19;;;;;;;8.85;4.50;;;;;;;;;;6223693;28;20045;-79
2023/09/04 04:18:21;;;;;;;26.13;5.85;;;;;;;;;;6241614;28;20087;-77
2023/09/04 04:21:24;;;;;;;18.50;5.00;;;;;;;;;;6236452;28;20038;-76
2023/09/04 04:24:27;;;;;;;8.45;4.95;;;;;;;;;;6234757;28;20046;-77
2023/09/04 04:27:28;;;;;;;21.52;4.10;;;;;;;;;;6212788;28;20084;-74
2023/09/04 04:30:30;;;;;;;6.75;4.28;;;;;;;;;;6229607;28;20049;-77
2023/09/04 04:33:32;;;;;;;6.38;3.67;;;;;;;;;;6216096;28;20106;-77
2023/09/04 04:36:35;;;;;;;7.43;4.25;;;;;;;;;;6227514;28;20084;-76
2023/09/04 04:39:36;;;;;;;21.95;4.25;;;;;;;;;;6229826;28;20050;-77
2023/09/04 04:42:39;;;;;;;8.40;4.57;;;;;;;;;;6207294;28;20052;-77
2023/09/04 04:45:43;;;;;;;5.47;4.60;;;;;;;;;;6249822;28;20045;-76
2023/09/04 04:48:45;;;;;;;9.35;4.38;;;;;;;;;;6256129;28;20053;-76
2023/09/04 04:51:49;;;;;;;17.80;4.50;;;;;;;;;;6235731;28;20045;-78
2023/09/04 04:54:51;;;;;;;9.32;4.53;;;;;;;;;;6244382;28;20045;-78
2023/09/04 04:57:53;;;;;;;38.78;5.00;;;;;;;;;;6245370;28;20132;-77
2023/09/04 05:00:55;;;;;;;12.80;3.58;;;;;;;;;;6228307;28;20148;-77
2023/09/04 05:03:57;;;;;;;6.75;3.95;;;;;;;;;;6233865;28;20049;-80
2023/09/04 05:06:59;;;;;;;6.43;3.90;;;;;;;;;;6240670;28;20044;-77
2023/09/04 05:10:01;;;;;;;9.20;3.80;;;;;;;;;;6236204;28;20060;-77
2023/09/04 05:13:03;;;;;;;11.32;3.75;;;;;;;;;;6239835;28;20064;-76
2023/09/04 05:16:05;;;;;;;10.98;4.03;;;;;;;;;;6219088;28;20050;-78
2023/09/04 05:19:12;;;;;;;6.07;3.75;;;;;;;;;;6221898;28;20564;-76
2023/09/04 05:22:13;;;;;;;17.05;4.10;;;;;;;;;;6228927;28;20067;-79
2023/09/04 05:25:15;;;;;;;18.02;4.00;;;;;;;;;;6232364;28;20049;-80
2023/09/04 05:28:17;;;;;;;10.95;3.55;;;;;;;;;;6236678;28;20190;-78
2023/09/04 05:31:19;;;;;;;3.95;2.92;;;;;;;;;;6237158;28;20060;-78
2023/09/04 05:34:21;;;;;;;7.35;4.00;;;;;;;;;;6242850;28;20041;-79
2023/09/04 05:37:24;;;;;;;9.00;3.95;;;;;;;;;;6235194;28;20045;-79
2023/09/04 05:40:25;;;;;;;5.50;3.33;;;;;;;;;;6236290;28;20045;-78
2023/09/04 05:43:27;;;;;;;4.68;3.60;;;;;;;;;;6239554;28;20050;-77
2023/09/04 05:46:32;;;;;;;17.98;3.70;;;;;;;;;;6240342;28;20053;-77
2023/09/04 05:49:34;;;;;;;36.70;4.72;;;;;;;;;;6236199;28;20056;-77
2023/09/04 05:52:36;;;;;;;13.23;4.00;;;;;;;;;;6234949;28;20052;-78
2023/09/04 05:55:40;;;;;;;6.97;3.65;;;;;;;;;;6239798;28;20050;-78
2023/09/04 05:58:45;;;;;;;9.93;3.92;;;;;;;;;;6234667;28;20057;-76
2023/09/04 06:01:47;;;;;;;7.15;4.20;;;;;;;;;;6218400;28;20046;-76
2023/09/04 06:04:49;;;;;;;5.07;3.80;;;;;;;;;;6232626;28;20041;-78
2023/09/04 06:07:51;;;;;;;12.95;3.70;;;;;;;;;;6236530;28;20085;-78
2023/09/04 06:10:54;;;;;;;6.75;3.13;;;;;;;;;;6225837;28;20041;-77
2023/09/04 06:13:55;;;;;;;;;;;;;;;;;;6228981;28;20037;-76
2023/09/04 06:16:58;;;;;;;3.95;3.15;;;;;;;;;;6215695;28;19921;-75
2023/09/04 06:20:00;;;;;;;9.85;3.25;;;;;;;;;;6229982;28;20045;-77
2023/09/04 06:23:03;;;;;;;4.82;3.70;;;;;;;;;;6227923;28;20053;-75
2023/09/04 06:26:05;;;;;;;5.85;3.30;;;;;;;;;;6251186;28;20064;-77
2023/09/04 06:29:06;;;;;;;15.00;4.13;;;;;;;;;;6251502;28;20074;-76
2023/09/04 06:32:08;;;;;;;4.13;3.33;;;;;;;;;;6242539;28;20056;-77
2023/09/04 06:35:10;;;;;;;6.57;3.35;;;;;;;;;;6227707;28;20060;-77
2023/09/04 06:38:14;;;;;;;4.30;3.10;;;;;;;;;;6236893;28;20137;-79
2023/09/04 06:41:16;;;;;;;5.85;3.63;;;;;;;;;;6230265;28;20050;-77
2023/09/04 06:44:18;;;;;;;5.60;3.33;;;;;;;;;;6228159;28;20061;-78
2023/09/04 06:47:19;;;;;;;8.43;3.70;;;;;;;;;;6232133;28;20057;-76
2023/09/04 06:50:21;;;;;;;4.43;3.25;;;;;;;;;;6226222;28;20616;-76
2023/09/04 06:53:23;;;;;;;6.35;3.75;;;;;;;;;;6225463;28;20057;-76
2023/09/04 06:56:25;;;;;;;3.88;3.30;;;;;;;;;;6221809;28;20054;-76
2023/09/04 06:59:27;;;;;;;4.28;2.78;;;;;;;;;;6225924;28;20057;-77
2023/09/04 07:02:28;;;;;;;4.30;3.30;;;;;;;;;;6202115;28;20503;-77
2023/09/04 07:05:30;;;;;;;3.92;2.85;;;;;;;;;;6181931;28;20042;-77
2023/09/04 07:08:32;;;;;;;4.45;3.42;;;;;;;;;;6218454;28;20042;-77
2023/09/04 07:11:34;;;;;;;4.95;3.03;;;;;;;;;;6228066;28;20076;-76
2023/09/04 07:14:38;;;;;;;4.10;3.27;;;;;;;;;;6226957;28;20045;-75
2023/09/04 07:17:40;;;;;;;5.63;2.80;;;;;;;;;;6226792;28;20038;-77
2023/09/04 07:20:42;;;;;;;3.92;3.35;;;;;;;;;;6193383;28;20053;-76
2023/09/04 07:23:46;;;;;;;6.95;3.40;;;;;;;;;;6221330;28;20077;-75
2023/09/04 07:26:48;;;;;;;5.15;3.03;;;;;;;;;;6228237;28;20520;-76
2023/09/04 07:29:49;;;;;;;5.53;3.63;;;;;;;;;;6224680;28;20041;-76
2023/09/04 07:32:52;;;;;;;3.33;3.03;;;;;;;;;;6223619;28;20626;-76
2023/09/04 07:35:54;;;;;;;3.80;3.00;;;;;;;;;;6227165;28;20042;-77
2023/09/04 07:38:56;;;;;;;4.15;3.45;;;;;;;;;;6222610;28;20129;-76
2023/09/04 07:41:58;;;;;;;3.33;2.90;;;;;;;;;;6226088;28;20497;-77
2023/09/04 07:45:00;;;;;;;6.90;3.55;;;;;;;;;;6222220;28;20044;-77
2023/09/04 07:48:02;;;;;;;4.50;3.40;;;;;;;;;;6227715;28;20049;-76
2023/09/04 07:51:05;;;;;;;5.15;3.50;;;;;;;;;;6208801;28;20140;-76
2023/09/04 07:54:21;;;;;;;6.00;3.20;;;;;;;;;;6225193;28;20129;-75
2023/09/04 07:57:23;;;;;;;;;;;;;;;;;;6219742;28;20045;-76
2023/09/04 08:00:25;;;;;;;4.07;3.20;;;;;;;;;;6226668;28;20007;-76
2023/09/04 08:03:27;;;;;;;4.60;2.65;;;;;;;;;;6226629;28;20042;-77
2023/09/04 08:06:30;;;;;;;4.30;2.95;;;;;;;;;;6222653;28;20049;-76
2023/09/04 08:09:32;;;;;;;3.78;2.65;;;;;;;;;;6219724;28;20045;-77
2023/09/04 08:12:33;;;;;;;4.22;2.80;;;;;;;;;;6227863;28;20053;-77
2023/09/04 08:15:35;;;;;;;3.58;2.83;;;;;;;;;;6221607;28;20049;-76
2023/09/04 08:18:37;;;;;;;3.10;2.53;;;;;;;;;;6221257;28;20554;-76
2023/09/04 08:21:39;;;;;;;4.28;3.22;;;;;;;;;;6226732;28;20049;-77
2023/09/04 08:24:41;;;;;;;3.42;2.75;;;;;;;;;;6229595;28;20106;-76
2023/09/04 08:27:43;;;;;;;3.25;2.60;;;;;;;;;;6226630;28;20064;-76
2023/09/04 08:30:45;;;;;;;3.50;2.67;;;;;;;;;;6204739;28;20048;-76
2023/09/04 08:33:47;;;;;;;3.37;2.63;;;;;;;;;;6225222;28;20045;-77
2023/09/04 08:36:49;;;;;;;3.13;2.40;;;;;;;;;;6229036;28;20060;-78
2023/09/04 08:39:51;;;;;;;2.35;2.15;;;;;;;;;;6210723;28;20519;-76
2023/09/04 08:42:55;;;;;;;2.40;2.20;;;;;;;;;;6221689;28;20046;-77
2023/09/04 08:46:00;;;;;;;7.53;2.50;;;;;;;;;;6223439;28;20045;-77
2023/09/04 08:49:02;;;;;;;4.22;2.30;;;;;;;;;;6230038;28;20034;-77
2023/09/04 08:52:05;;;;;;;4.65;2.70;;;;;;;;;;6224627;28;20196;-77
2023/09/04 08:55:08;;;;;;;4.13;2.50;;;;;;;;;;6223947;28;20088;-76
2023/09/04 08:58:10;;;;;;;2.70;2.17;;;;;;;;;;6225950;28;21427;-78
2023/09/04 09:01:14;;;;;;;2.73;2.03;;;;;;;;;;6229184;28;20048;-77
2023/09/04 09:04:20;;;;;;;3.15;2.42;;;;;;;;;;6206863;28;20539;-76
2023/09/04 09:07:23;;;;;;;2.30;2.10;;;;;;;;;;6225514;28;20170;-77
2023/09/04 09:10:25;;;;;;;3.17;2.25;;;;;;;;;;6229345;28;20050;-76
2023/09/04 09:13:27;;;;;;;2.55;2.03;;;;;;;;;;6221286;28;20045;-75
2023/09/04 09:16:29;;;;;;;3.03;2.07;;;;;;;;;;6227663;28;20059;-77
2023/09/04 09:19:35;;;;;;;4.93;2.00;;;;;;;;;;6229068;28;20041;-78
2023/09/04 09:22:37;;;;;;;2.80;2.22;;;;;;;;;;6225500;28;20436;-74
2023/09/04 09:25:39;;;;;;;5.47;2.20;;;;;;;;;;6225983;28;20049;-75
2023/09/04 09:28:44;;;;;;;3.10;1.95;;;;;;;;;;6218956;28;20717;-75
2023/09/04 09:31:47;;;;;;;3.65;2.03;;;;;;;;;;6210581;28;20423;-76
2023/09/04 09:34:50;;;;;;;2.55;1.92;;;;;;;;;;6222609;28;20197;-77
2023/09/04 09:37:53;;;;;;;2.65;1.70;;;;;;;;;;6226552;28;20048;-76
2023/09/04 09:40:55;;;;;;;3.63;1.90;;;;;;;;;;6222129;28;20045;-75
2023/09/04 09:44:04;;;;;;;3.17;1.73;;;;;;;;;;6211314;28;20078;-77
2023/09/04 09:47:15;;;;;;;3.50;1.58;;;;;;;;;;6231534;28;20270;-77
2023/09/04 09:50:18;;;;;;;1.85;1.60;;;;;;;;;;6212003;28;20084;-77
2023/09/04 09:53:20;;;;;;;2.63;1.77;;;;;;;;;;6228667;28;20139;-77
2023/09/04 09:56:21;;;;;;;2.83;1.70;;;;;;;;;;6228431;28;20180;-77
2023/09/04 09:59:24;;;;;;;2.20;1.70;;;;;;;;;;6226140;28;20075;-77
2023/09/04 10:02:27;;;;;;;2.20;1.67;;;;;;;;;;6227051;28;20432;-77
2023/09/04 10:05:31;;;;;;;1.90;1.60;;;;;;;;;;6226125;28;20049;-77
2023/09/04 10:08:40;;;;;;;3.13;1.48;;;;;;;;;;6227199;28;20045;-77
2023/09/04 10:11:44;;;;;;;1.95;1.45;;;;;;;;;;6226742;28;20050;-77
2023/09/04 10:14:49;;;;;;;2.05;1.50;;;;;;;;;;6224287;28;20049;-76
2023/09/04 10:18:11;;;;;;;3.10;2.13;;;;;;;;;;6223946;28;20126;-77
2023/09/04 10:21:16;;;;;;;2.67;1.77;;;;;;;;;;6223958;28;20127;-76
2023/09/04 10:24:28;;;;;;;2.33;1.90;;;;;;;;;;6221082;28;20554;-77
2023/09/04 10:27:35;;;;;;;1.50;1.30;;;;;;;;;;6228126;28;20510;-76
2023/09/04 10:30:41;;;;;;;3.47;1.50;;;;;;;;;;6190913;28;20045;-77
2023/09/04 10:33:43;;;;;;;1.80;1.40;;;;;;;;;;6226937;28;20131;-77
2023/09/04 10:36:46;;;;;;;2.10;1.60;;;;;;;;;;6211552;28;20577;-75
2023/09/04 10:39:48;;;;;;;2.25;1.50;;;;;;;;;;6204427;28;20500;-76
2023/09/04 10:43:03;;;;;;;2.45;1.58;;;;;;;;;;6220702;28;20416;-75
2023/09/04 10:46:10;;;;;;;2.25;1.75;;;;;;;;;;6208858;28;20500;-74
2023/09/04 10:49:29;;;;;;;3.45;1.60;;;;;;;;;;6208078;28;20053;-75
2023/09/04 10:52:43;;;;;;;2.00;1.60;;;;;;;;;;6223377;28;20053;-75
2023/09/04 10:56:12;;;;;;;2.10;1.90;;;;;;;;;;6228088;28;20045;-75
2023/09/04 10:59:13;;;;;;;2.85;1.77;;;;;;;;;;6223523;28;20053;-75
2023/09/04 11:02:29;;;;;;;2.63;1.70;;;;;;;;;;6227171;28;20042;-76
2023/09/04 11:06:04;;;;;;;2.50;1.60;;;;;;;;;;6214311;28;20041;-77
2023/09/04 11:09:11;;;;;;;1.90;1.52;;;;;;;;;;6226102;28;20100;-75
2023/09/04 11:12:20;;;;;;;1.63;1.48;;;;;;;;;;6226497;28;20042;-76
2023/09/04 11:15:24;;;;;;;2.05;1.67;;;;;;;;;;6218019;28;20049;-75
2023/09/04 11:18:30;;;;;;;2.33;1.75;;;;;;;;;;6205906;28;20098;-73
2023/09/04 11:21:33;;;;;;;2.92;1.75;;;;;;;;;;6209274;28;20065;-75
2023/09/04 11:24:35;;;;;;;3.58;1.70;;;;;;;;;;6220781;28;20088;-75
2023/09/04 11:27:37;;;;;;;4.57;1.92;;;;;;;;;;6220693;28;20037;-75
2023/09/04 11:30:39;;;;;;;3.03;1.83;;;;;;;;;;6223123;28;20041;-75
2023/09/04 11:33:41;;;;;;;1.65;1.50;;;;;;;;;;6221078;28;20088;-76
2023/09/04 11:36:46;;;;;;;2.15;1.63;;;;;;;;;;6221124;28;20041;-76
2023/09/04 11:39:57;;;;;;;1.80;1.58;;;;;;;;;;6222142;28;20411;-76
2023/09/04 11:43:05;;;;;;;2.20;1.60;;;;;;;;;;6222534;28;20041;-76
2023/09/04 11:46:09;;;;;;;3.40;1.80;;;;;;;;;;6194233;28;20531;-78
2023/09/04 11:49:10;;;;;;;2.17;1.80;;;;;;;;;;6202443;28;20424;-75
2023/09/04 11:52:19;;;;;;;2.13;1.50;;;;;;;;;;6213253;28;20057;-76
2023/09/04 11:55:23;;;;;;;2.13;1.65;;;;;;;;;;6200165;28;20042;-76
2023/09/04 11:58:25;;;;;;;2.55;1.35;;;;;;;;;;6191922;28;20435;-75
2023/09/04 12:01:27;;;;;;;1.70;1.60;;;;;;;;;;6188158;28;20073;-76
2023/09/04 12:04:31;;;;;;;1.45;1.35;;;;;;;;;;6214484;28;20045;-76
2023/09/04 12:07:33;;;;;;;2.53;1.50;;;;;;;;;;6189473;28;20042;-76
2023/09/04 12:10:37;;;;;;;1.58;1.48;;;;;;;;;;6195317;28;20514;-77
2023/09/04 12:13:39;;;;;;;2.65;1.90;;;;;;;;;;6191129;28;20524;-76
2023/09/04 12:16:43;;;;;;;2.20;1.70;;;;;;;;;;6218454;28;20072;-77
2023/09/04 12:19:45;;;;;;;1.67;1.50;;;;;;;;;;6217526;28;20073;-76
2023/09/04 12:22:55;;;;;;;1.58;1.48;;;;;;;;;;6214296;28;20086;-77
2023/09/04 12:25:57;;;;;;;2.13;1.65;;;;;;;;;;6216316;28;20540;-78
2023/09/04 12:28:58;;;;;;;2.47;1.33;;;;;;;;;;6217957;28;20050;-77
2023/09/04 12:32:02;;;;;;;1.52;1.20;;;;;;;;;;6218982;28;20049;-78
2023/09/04 12:35:06;;;;;;;1.63;1.33;;;;;;;;;;6224236;28;20045;-78
2023/09/04 12:38:07;;;;;;;2.42;1.48;;;;;;;;;;6206531;28;20041;-78
2023/09/04 12:41:09;;;;;;;2.88;1.60;;;;;;;;;;6204273;28;20151;-78
2023/09/04 12:44:12;;;;;;;1.77;1.38;;;;;;;;;;6218852;28;20141;-81
2023/09/04 12:47:13;;;;;;;2.08;1.27;;;;;;;;;;6222587;28;20068;-79
2023/09/04 12:50:15;;;;;;;2.55;1.42;;;;;;;;;;6226163;28;20049;-77
2023/09/04 12:53:17;;;;;;;2.22;1.20;;;;;;;;;;6206500;28;20046;-76
2023/09/04 12:56:19;;;;;;;2.42;1.35;;;;;;;;;;6219427;28;20049;-78
2023/09/04 12:59:20;;;;;;;2.13;1.20;;;;;;;;;;6225272;28;20421;-78
2023/09/04 13:02:22;;;;;;;2.10;1.70;;;;;;;;;;6225197;28;20042;-78
2023/09/04 13:05:24;;;;;;;2.03;1.33;;;;;;;;;;6228335;28;20046;-77
2023/09/04 13:08:26;;;;;;;1.65;1.40;;;;;;;;;;6227326;28;20038;-80
2023/09/04 13:11:27;;;;;;;3.70;1.15;;;;;;;;;;6212455;28;20068;-77
2023/09/04 13:14:29;;;;;;;1.20;1.10;;;;;;;;;;6216324;28;21642;-78
2023/09/04 13:17:31;;;;;;;58.13;15.55;;;;;;;;;;6226848;28;20050;-79
2023/09/04 13:20:35;;;;;;;26.52;7.72;;;;;;;;;;6227708;28;20041;-79
2023/09/04 13:23:38;;;;;;;3.55;1.90;;;;;;;;;;6231682;28;20057;-78
2023/09/04 13:26:41;;;;;;;1.63;1.25;;;;;;;;;;6236735;28;20042;-78
2023/09/04 13:29:43;;;;;;;8.02;2.45;;;;;;;;;;6233839;28;20507;-78
2023/09/04 13:32:45;;;;;;;2.55;1.30;;;;;;;;;;6240722;28;20099;-75
2023/09/04 13:35:47;;;;;;;1.60;1.23;;;;;;;;;;6226674;28;20044;-75
2023/09/04 13:38:48;;;;;;;2.60;1.45;;;;;;;;;;6226638;28;20573;-75
2023/09/04 13:41:50;;;;;;;1.90;1.30;;;;;;;;;;6225562;28;20168;-75
2023/09/04 13:44:53;;;;;;;1.98;1.35;;;;;;;;;;6224542;28;20124;-74
2023/09/04 13:47:55;;;;;;;1.70;1.35;;;;;;;;;;6219366;28;20072;-76
2023/09/04 13:51:00;;;;;;;2.25;1.25;;;;;;;;;;6224714;28;20054;-75
2023/09/04 13:54:02;;;;;;;1.75;1.20;;;;;;;;;;6224914;28;20060;-75
2023/09/04 13:57:04;;;;;;;1.33;1.20;;;;;;;;;;6225259;28;20041;-75
2023/09/04 14:00:06;;;;;;;2.75;1.52;;;;;;;;;;6218804;28;20054;-74
2023/09/04 14:03:11;;;;;;;1.52;1.00;;;;;;;;;;6226584;28;20215;-76
2023/09/04 14:06:13;;;;;;;2.15;1.20;;;;;;;;;;6223960;28;20042;-79
2023/09/04 14:09:14;;;;;;;1.75;1.27;;;;;;;;;;6227691;28;20499;-77
2023/09/04 14:12:16;;;;;;;1.33;1.00;;;;;;;;;;6226581;28;20420;-76
2023/09/04 14:15:18;;;;;;;1.50;1.30;;;;;;;;;;6226139;28;20865;-77
2023/09/04 14:18:20;;;;;;;1.50;1.33;;;;;;;;;;6208214;28;20057;-75
2023/09/04 14:21:22;;;;;;;2.17;1.40;;;;;;;;;;6224715;28;20098;-77
2023/09/04 14:24:23;;;;;;;1.45;1.30;;;;;;;;;;6228494;28;20053;-76
2023/09/04 14:27:25;;;;;;;1.95;1.50;;;;;;;;;;6226113;28;20048;-77
2023/09/04 14:30:27;;;;;;;1.30;1.20;;;;;;;;;;6224134;28;20052;-76
2023/09/04 14:33:28;;;;;;;1.83;1.30;;;;;;;;;;6233136;28;20594;-76
2023/09/04 14:36:30;;;;;;;1.70;1.40;;;;;;;;;;6229872;28;20060;-76
2023/09/04 14:39:32;;;;;;;3.55;1.42;;;;;;;;;;6222304;28;20049;-76
2023/09/04 14:42:34;;;;;;;2.13;1.50;;;;;;;;;;6213773;28;20144;-77
2023/09/04 14:45:35;;;;;;;;;;;;;;;;;;6220281;28;20056;-77
2023/09/04 14:48:37;;;;;;;1.90;1.50;;;;;;;;;;6226921;28;19921;-76
2023/09/04 14:51:39;;;;;;;2.42;1.33;;;;;;;;;;6224424;28;20049;-76
2023/09/04 14:54:40;;;;;;;1.52;1.20;;;;;;;;;;6215925;28;20045;-77
2023/09/04 14:57:42;;;;;;;4.93;1.67;;;;;;;;;;6227644;28;20465;-78
2023/09/04 15:00:48;;;;;;;2.03;1.33;;;;;;;;;;6223059;28;20530;-78
2023/09/04 15:03:51;;;;;;;3.13;1.25;;;;;;;;;;6227776;28;20396;-77
2023/09/04 15:06:53;;;;;;;1.40;1.30;;;;;;;;;;6225779;28;20048;-77
2023/09/04 15:09:55;;;;;;;2.13;1.40;;;;;;;;;;6223546;28;20041;-78
2023/09/04 15:12:56;;;;;;;2.70;1.48;;;;;;;;;;6225630;28;20057;-77
2023/09/04 15:16:02;;;;;;;2.10;1.70;;;;;;;;;;6225962;28;20052;-77
2023/09/04 15:19:04;;;;;;;1.35;1.20;;;;;;;;;;6225023;28;20038;-77
2023/09/04 15:22:07;;;;;;;2.15;1.58;;;;;;;;;;6223617;28;20052;-77
2023/09/04 15:25:08;;;;;;;2.13;1.65;;;;;;;;;;6227304;28;20059;-76
2023/09/04 15:28:10;;;;;;;2.42;1.45;;;;;;;;;;6226210;28;20037;-76
2023/09/04 15:31:12;;;;;;;2.45;1.58;;;;;;;;;;6227365;28;20053;-76
2023/09/04 15:34:13;;;;;;;2.47;1.40;;;;;;;;;;6214996;28;20507;-79
2023/09/04 15:37:15;;;;;;;2.92;1.40;;;;;;;;;;6234720;28;20396;-77
2023/09/04 15:40:17;;;;;;;2.28;1.60;;;;;;;;;;6227832;28;20641;-78
2023/09/04 15:43:20;;;;;;;1.60;1.50;;;;;;;;;;6227024;28;20705;-78
2023/09/04 15:46:22;;;;;;;3.75;1.90;;;;;;;;;;6233203;28;20045;-78
2023/09/04 15:49:24;;;;;;;1.98;1.50;;;;;;;;;;6230925;28;20076;-79
2023/09/04 15:52:26;;;;;;;1.33;1.23;;;;;;;;;;6225309;28;20402;-78
2023/09/04 15:55:27;;;;;;;1.63;1.30;;;;;;;;;;6229505;28;20041;-79
2023/09/04 15:58:29;;;;;;;3.30;1.23;;;;;;;;;;6231745;28;20526;-79
2023/09/04 16:01:31;;;;;;;1.98;1.40;;;;;;;;;;6227035;28;20052;-78
2023/09/04 16:04:33;;;;;;;2.55;1.50;;;;;;;;;;6229873;28;20049;-76
2023/09/04 16:07:35;;;;;;;1.48;1.17;;;;;;;;;;6230219;28;20046;-77
2023/09/04 16:10:36;;;;;;;1.75;1.50;;;;;;;;;;6231024;28;20080;-77
2023/09/04 16:13:38;;;;;;;3.20;1.55;;;;;;;;;;6227598;28;20041;-78
2023/09/04 16:16:40;;;;;;;2.00;1.45;;;;;;;;;;6234319;28;20049;-78
2023/09/04 16:19:42;;;;;;;1.63;1.35;;;;;;;;;;6233072;28;20080;-78
2023/09/04 16:22:44;;;;;;;2.47;1.52;;;;;;;;;;6228421;28;20064;-78
2023/09/04 16:25:46;;;;;;;1.30;1.20;;;;;;;;;;6220601;28;20037;-78
2023/09/04 16:28:48;;;;;;;1.83;1.30;;;;;;;;;;6229308;28;20045;-77
2023/09/04 16:31:49;;;;;;;2.15;1.23;;;;;;;;;;6211671;28;20486;-78
2023/09/04 16:34:51;;;;;;;2.20;1.27;;;;;;;;;;6227210;28;20041;-78
2023/09/04 16:37:55;;;;;;;2.13;1.30;;;;;;;;;;6233463;28;20042;-77
2023/09/04 16:40:57;;;;;;;2.55;1.33;;;;;;;;;;6238807;28;20049;-79
2023/09/04 16:44:00;;;;;;;2.88;1.48;;;;;;;;;;6234645;28;20373;-77
2023/09/04 16:47:02;;;;;;;1.88;1.42;;;;;;;;;;6206289;28;20065;-77
2023/09/04 16:50:04;;;;;;;1.85;1.27;;;;;;;;;;6217590;28;20053;-78
2023/09/04 16:53:06;;;;;;;1.67;1.23;;;;;;;;;;6209729;28;20058;-79
2023/09/04 16:56:07;;;;;;;1.60;1.40;;;;;;;;;;6221853;28;20050;-77
2023/09/04 16:59:09;;;;;;;4.27;2.00;;;;;;;;;;6236851;28;20045;-78
2023/09/04 17:02:11;;;;;;;2.15;1.55;;;;;;;;;;6238174;28;20037;-78
2023/09/04 17:05:12;;;;;;;2.83;1.70;;;;;;;;;;6242602;28;20056;-78
2023/09/04 17:08:14;;;;;;;2.60;1.53;;;;;;;;;;6234359;28;20515;-77
2023/09/04 17:11:16;;;;;;;1.38;1.20;;;;;;;;;;6237047;28;20385;-80
2023/09/04 17:14:18;;;;;;;2.37;1.57;;;;;;;;;;6232151;28;20042;-79
2023/09/04 17:17:20;;;;;;;2.33;1.50;;;;;;;;;;6235628;28;20041;-79
2023/09/04 17:20:21;;;;;;;3.77;2.10;;;;;;;;;;6236951;28;20046;-78
2023/09/04 17:23:23;;;;;;;4.17;2.80;;;;;;;;;;6224716;28;20038;-79
2023/09/04 17:26:25;;;;;;;4.75;1.80;;;;;;;;;;6232225;28;20049;-79
2023/09/04 17:29:52;;;;;;;2.47;1.70;;;;;;;;;;6222763;28;20061;-77
2023/09/04 17:32:54;;;;;;;1.63;1.20;;;;;;;;;;6238519;22;20512;-91
2023/09/04 17:36:02;;;;;;;2.05;1.20;;;;;;;;;;6194557;28;20054;-90
2023/09/04 17:39:24;;;;;;;1.75;1.30;;;;;;;;;;6166569;28;20041;-91
2023/09/04 17:42:27;;;;;;;3.35;1.40;;;;;;;;;;6196458;28;20178;-90
2023/09/04 17:45:36;;;;;;;3.20;1.55;;;;;;;;;;6205373;28;20079;-89
2023/09/04 17:48:41;;;;;;;1.45;1.27;;;;;;;;;;6188184;28;20045;-90
2023/09/04 17:51:46;;;;;;;4.22;1.90;;;;;;;;;;6211379;28;20514;-89
2023/09/04 17:55:02;;;;;;;2.35;1.63;;;;;;;;;;6220106;28;20065;-90
2023/09/04 17:58:05;;;;;;;3.58;1.70;;;;;;;;;;6221800;28;20083;-89
2023/09/04 18:01:17;;;;;;;2.47;1.93;;;;;;;;;;6228484;28;20132;-90
2023/09/04 18:04:25;;;;;;;3.67;2.47;;;;;;;;;;6188227;28;20808;-89
2023/09/04 18:07:29;;;;;;;3.17;2.30;;;;;;;;;;6193822;28;21635;-89
2023/09/04 18:10:40;;;;;;;2.90;1.95;;;;;;;;;;6202287;28;20048;-91
2023/09/04 18:13:43;;;;;;;3.00;1.95;;;;;;;;;;6204255;28;20057;-90
2023/09/04 18:16:49;;;;;;;3.47;1.88;;;;;;;;;;6193865;28;20037;-89